Time;durP1;ratioP1;P1;durP2;ratioP2;P2;SDS_P1;SDS_P2;PMS_P1;PMS_P2;Temp;Humidity;BMP_temperature;BMP_pressure;BME280_temperature;BME280_humidity;BME280_pressure;Samples;Min_cycle;Max_cycle;Signal;HPM_P1;HPM_P2
2023/09/29 00:01:33;;;;;;;32.20;25.85;;;;;;;20.92;77.65;101441.22;5054313;28;20379;-73
2023/09/29 00:03:59;;;;;;;32.35;25.23;;;;;;;20.92;76.78;101443.88;5055304;28;20386;-73
2023/09/29 00:06:25;;;;;;;28.73;24.45;;;;;;;20.91;77.45;101442.19;5055173;28;20380;-72
2023/09/29 00:08:50;;;;;;;30.73;25.23;;;;;;;20.91;77.87;101443.94;5070929;28;20376;-72
2023/09/29 00:11:16;;;;;;;29.55;24.45;;;;;;;20.90;77.53;101445.75;5055061;28;20666;-73
2023/09/29 00:13:46;;;;;;;29.17;24.37;;;;;;;20.91;77.74;101446.59;5055102;28;20372;-73
2023/09/29 00:16:13;;;;;;;29.63;23.77;;;;;;;20.91;78.19;101446.59;5054117;28;20375;-73
2023/09/29 00:18:39;;;;;;;29.52;24.27;;;;;;;20.91;78.01;101436.84;5070221;28;20411;-71
2023/09/29 00:21:06;;;;;;;28.47;23.73;;;;;;;20.90;77.77;101442.22;5055033;28;20383;-73
2023/09/29 00:23:35;;;;;;;30.40;24.20;;;;;;;20.90;78.02;101439.56;5054905;28;20376;-73
2023/09/29 00:26:03;;;;;;;30.75;24.35;;;;;;;20.90;77.63;101439.56;5054912;28;20407;-71
2023/09/29 00:28:30;;;;;;;28.08;23.70;;;;;;;20.90;77.80;101435.13;5054670;28;20371;-72
2023/09/29 00:30:58;;;;;;;28.13;23.07;;;;;;;20.88;77.67;101431.66;5054813;28;20837;-73
2023/09/29 00:33:23;;;;;;;29.80;23.60;;;;;;;20.87;77.35;101430.81;5054642;28;20391;-73
2023/09/29 00:35:51;;;;;;;30.25;23.40;;;;;;;20.85;77.85;101430.00;5054649;28;20375;-73
2023/09/29 00:38:19;;;;;;;30.17;23.23;;;;;;;20.88;77.54;101431.66;5053529;28;20396;-72
2023/09/29 00:40:47;;;;;;;26.02;22.30;;;;;;;20.87;77.77;101435.25;5053925;28;20371;-73
2023/09/29 00:43:17;;;;;;;26.85;22.40;;;;;;;20.86;78.01;101429.09;5054606;28;20426;-73
2023/09/29 00:45:42;;;;;;;27.73;22.25;;;;;;;20.87;77.87;101429.94;5054381;28;20771;-72
2023/09/29 00:48:10;;;;;;;26.00;21.67;;;;;;;20.85;77.81;101424.69;5070243;28;20840;-72
2023/09/29 00:50:37;;;;;;;25.08;21.70;;;;;;;20.84;77.42;101430.94;5053529;28;20415;-73
2023/09/29 00:53:13;;;;;;;27.70;22.50;;;;;;;20.86;78.72;101426.44;5053443;28;20397;-73
2023/09/29 00:55:41;;;;;;;27.50;22.80;;;;;;;20.85;78.14;101432.66;5054878;28;20380;-73
2023/09/29 00:58:07;;;;;;;26.80;22.92;;;;;;;20.84;77.55;101425.63;5053601;28;20392;-72
2023/09/29 01:00:32;;;;;;;30.20;23.63;;;;;;;20.86;77.94;101423.78;5036704;28;20482;-73
2023/09/29 01:03:05;;;;;;;26.77;22.03;;;;;;;20.85;77.57;101422.03;5053356;28;20753;-73
2023/09/29 01:05:35;;;;;;;25.23;21.60;;;;;;;20.84;78.06;101420.31;5053377;28;20375;-72
2023/09/29 01:08:08;;;;;;;24.38;21.63;;;;;;;20.85;78.02;101416.72;5053048;28;20410;-73
2023/09/29 01:10:33;;;;;;;26.00;21.98;;;;;;;20.84;77.82;101409.69;5053286;28;20441;-73
2023/09/29 01:12:58;;;;;;;24.83;21.10;;;;;;;20.83;77.66;101407.09;5054307;28;20375;-73
2023/09/29 01:15:27;;;;;;;25.58;20.50;;;;;;;20.84;78.03;101412.34;5053926;28;20376;-72
2023/09/29 01:17:52;;;;;;;24.70;21.38;;;;;;;20.84;77.62;101409.69;5053669;28;20383;-72
2023/09/29 01:20:24;;;;;;;24.27;20.90;;;;;;;20.82;77.36;101408.91;5053894;28;20836;-72
2023/09/29 01:22:50;;;;;;;25.40;20.75;;;;;;;20.81;78.14;101408.94;5053107;28;20426;-72
2023/09/29 01:25:17;;;;;;;24.47;20.50;;;;;;;20.83;78.26;101413.25;5053994;28;20817;-71
2023/09/29 01:27:43;;;;;;;24.73;20.63;;;;;;;20.82;77.86;101405.38;5068733;28;20375;-73
2023/09/29 01:30:13;;;;;;;22.80;20.40;;;;;;;20.81;77.57;101407.19;5053597;28;20379;-73
2023/09/29 01:32:41;;;;;;;22.27;19.80;;;;;;;20.81;77.53;101407.19;5053586;28;20371;-72
2023/09/29 01:35:07;;;;;;;23.65;20.52;;;;;;;20.81;77.46;101415.16;5053902;28;20360;-73
2023/09/29 01:37:34;;;;;;;23.25;20.05;;;;;;;20.81;77.24;101408.94;5053931;28;20372;-73
2023/09/29 01:39:59;;;;;;;23.90;20.13;;;;;;;20.80;78.07;101405.44;5052481;28;20422;-73
2023/09/29 01:42:25;;;;;;;25.00;19.67;;;;;;;20.81;78.03;101408.94;5053535;28;20371;-74
2023/09/29 01:44:51;;;;;;;22.67;19.60;;;;;;;20.79;77.72;101406.38;5053393;28;20402;-73
2023/09/29 01:47:16;;;;;;;22.35;19.23;;;;;;;20.79;77.40;101401.06;5053454;28;20379;-71
2023/09/29 01:49:42;;;;;;;23.17;20.37;;;;;;;20.79;77.61;101408.16;5053378;28;20429;-72
2023/09/29 01:52:10;;;;;;;24.05;19.02;;;;;;;20.80;77.07;101407.25;5054820;28;20383;-73
2023/09/29 01:54:35;;;;;;;21.60;19.13;;;;;;;20.78;76.84;101404.66;5053263;28;21001;-72
2023/09/29 01:57:01;;;;;;;22.10;19.63;;;;;;;20.78;77.68;101399.31;5053257;28;20397;-73
2023/09/29 01:59:28;;;;;;;21.37;18.93;;;;;;;20.79;77.68;101400.19;5053163;28;20395;-72
2023/09/29 02:01:58;;;;;;;20.73;18.48;;;;;;;20.77;77.32;101408.25;5053502;28;20709;-72
2023/09/29 02:04:26;;;;;;;20.88;17.80;;;;;;;20.77;77.27;101402.94;5053196;28;20388;-72
2023/09/29 02:06:52;;;;;;;21.77;19.20;;;;;;;20.76;77.63;101406.50;5053152;28;20402;-72
2023/09/29 02:09:20;;;;;;;21.90;18.52;;;;;;;20.76;77.10;101409.16;5053367;28;20523;-72
2023/09/29 02:11:47;;;;;;;21.50;18.20;;;;;;;20.76;77.39;101405.66;5053026;28;20368;-73
2023/09/29 02:14:12;;;;;;;21.80;18.52;;;;;;;20.75;76.95;101407.44;5053045;28;20442;-72
2023/09/29 02:16:38;;;;;;;21.13;18.07;;;;;;;20.75;77.44;101404.78;5052049;28;20391;-72
2023/09/29 02:19:04;;;;;;;22.48;18.67;;;;;;;20.73;76.46;101404.00;5051794;28;20395;-72
2023/09/29 02:21:33;;;;;;;21.90;18.10;;;;;;;20.75;76.88;101402.13;5052943;28;20724;-74
2023/09/29 02:24:00;;;;;;;19.93;17.87;;;;;;;20.73;76.86;101401.34;5053064;28;20379;-72
2023/09/29 02:26:28;;;;;;;21.35;19.02;;;;;;;20.74;76.56;101402.19;5052955;28;20403;-71
2023/09/29 02:28:55;;;;;;;20.97;18.37;;;;;;;20.74;77.27;101387.09;5052951;28;20367;-72
2023/09/29 02:31:21;;;;;;;19.77;17.27;;;;;;;20.72;76.75;101399.63;5053109;28;20371;-73
2023/09/29 02:33:50;;;;;;;21.70;18.23;;;;;;;20.73;76.57;101393.38;5052894;28;20433;-73
2023/09/29 02:36:16;;;;;;;19.73;17.50;;;;;;;20.73;77.13;101392.50;5053115;28;20385;-74
2023/09/29 02:38:41;;;;;;;19.37;17.00;;;;;;;20.72;76.28;101389.00;5052157;28;20395;-73
2023/09/29 02:41:07;;;;;;;19.77;17.60;;;;;;;20.73;76.89;101390.72;5054810;28;20388;-72
2023/09/29 02:43:33;;;;;;;19.45;17.08;;;;;;;20.74;77.20;101387.09;5072478;28;20386;-73
2023/09/29 02:46:01;;;;;;;19.40;17.30;;;;;;;20.72;76.80;101386.34;5039167;28;20756;-72
2023/09/29 02:48:27;;;;;;;20.47;17.60;;;;;;;20.71;76.36;101381.09;5072138;28;20380;-73
2023/09/29 02:50:53;;;;;;;19.52;17.33;;;;;;;20.72;76.53;101377.47;5057166;28;20385;-73
2023/09/29 02:53:21;;;;;;;19.25;17.13;;;;;;;20.70;76.53;101374.91;5056755;28;20470;-72
2023/09/29 02:55:48;;;;;;;19.42;16.83;;;;;;;20.71;76.12;101376.63;5072624;28;20387;-72
2023/09/29 02:58:14;;;;;;;19.17;17.08;;;;;;;20.71;76.59;101371.31;5057283;28;20484;-73
2023/09/29 03:00:39;;;;;;;19.20;16.80;;;;;;;20.71;76.73;101376.63;5057065;28;20440;-73
2023/09/29 03:03:09;;;;;;;18.73;16.70;;;;;;;20.70;76.17;101377.56;5060203;28;20375;-73
2023/09/29 03:05:34;;;;;;;18.65;16.65;;;;;;;20.69;76.54;101367.00;5056640;28;20380;-73
2023/09/29 03:08:03;;;;;;;18.50;16.53;;;;;;;20.71;76.59;101373.97;5055905;28;20387;-74
2023/09/29 03:10:28;;;;;;;18.48;16.52;;;;;;;20.69;76.33;101373.16;5056211;28;20379;-73
2023/09/29 03:12:56;;;;;;;17.80;15.90;;;;;;;20.67;75.04;101372.38;5056142;28;20378;-75
2023/09/29 03:15:24;;;;;;;19.83;16.70;;;;;;;20.68;75.72;101371.47;5056173;28;20411;-74
2023/09/29 03:17:49;;;;;;;17.88;16.00;;;;;;;20.67;75.14;101375.03;5056018;28;20372;-72
2023/09/29 03:20:17;;;;;;;18.05;16.15;;;;;;;20.67;75.17;101369.72;5055235;28;20461;-73
2023/09/29 03:22:46;;;;;;;18.60;16.02;;;;;;;20.68;76.24;101375.91;5056089;28;20379;-72
2023/09/29 03:25:16;;;;;;;18.60;16.60;;;;;;;20.67;76.26;101375.03;5056077;28;20383;-73
2023/09/29 03:27:42;;;;;;;17.65;15.68;;;;;;;20.66;75.04;101375.97;5056295;28;20414;-72
2023/09/29 03:30:10;;;;;;;17.93;16.03;;;;;;;20.64;74.83;101381.34;5056015;28;20375;-73
2023/09/29 03:32:39;;;;;;;17.33;15.48;;;;;;;20.66;75.45;101378.63;5055795;28;20380;-73
2023/09/29 03:35:05;;;;;;;19.35;16.13;;;;;;;20.65;74.85;101388.41;5055924;28;20368;-73
2023/09/29 03:37:36;;;;;;;18.20;16.13;;;;;;;20.63;74.05;101379.63;5055791;28;20741;-73
2023/09/29 03:40:07;;;;;;;18.15;16.00;;;;;;;20.63;74.32;101384.09;5055971;28;20391;-73
2023/09/29 03:42:33;;;;;;;17.60;15.70;;;;;;;20.63;73.75;101376.97;5055863;28;20380;-72
2023/09/29 03:45:05;;;;;;;18.25;15.95;;;;;;;20.63;73.88;101379.63;5055671;28;20425;-72
2023/09/29 03:47:33;;;;;;;17.10;14.93;;;;;;;20.63;73.72;101363.69;5055560;28;20817;-73
2023/09/29 03:50:01;;;;;;;16.98;15.18;;;;;;;20.64;74.50;101365.41;5055527;28;20438;-72
2023/09/29 03:52:27;;;;;;;16.67;14.70;;;;;;;20.65;74.07;101361.84;5054244;28;20417;-73
2023/09/29 03:54:53;;;;;;;17.77;15.70;;;;;;;20.64;73.99;101370.72;5055463;28;20790;-73
2023/09/29 03:57:18;;;;;;;18.10;15.18;;;;;;;20.65;73.66;101367.16;5055869;28;20914;-73
2023/09/29 03:59:44;;;;;;;18.60;15.47;;;;;;;20.65;73.80;101372.47;5055294;28;20391;-72
2023/09/29 04:02:11;;;;;;;17.65;15.63;;;;;;;20.66;73.65;101365.34;5071103;28;20375;-73
2023/09/29 04:04:42;;;;;;;17.77;15.25;;;;;;;20.66;73.75;101371.53;5054443;28;20739;-71
2023/09/29 04:07:10;;;;;;;18.45;14.95;;;;;;;20.66;73.15;101368.00;5054359;28;20429;-72
2023/09/29 04:09:37;;;;;;;18.20;14.80;;;;;;;20.67;73.77;101369.72;5055189;28;20407;-72
2023/09/29 04:12:03;;;;;;;16.25;14.50;;;;;;;20.66;72.90;101365.34;5054111;28;20372;-72
2023/09/29 04:14:31;;;;;;;17.85;15.55;;;;;;;20.67;73.05;101375.03;5055154;28;20390;-71
2023/09/29 04:16:56;;;;;;;16.70;14.90;;;;;;;20.66;73.21;101371.53;5070850;28;20380;-73
2023/09/29 04:19:24;;;;;;;16.10;14.40;;;;;;;20.68;73.21;101384.75;5054943;28;20403;-72
2023/09/29 04:21:51;;;;;;;16.20;14.32;;;;;;;20.68;72.88;101382.09;5054919;28;20832;-73
2023/09/29 04:24:19;;;;;;;21.27;14.40;;;;;;;20.68;72.84;101375.91;5054966;28;20387;-72
2023/09/29 04:26:44;;;;;;;16.23;14.43;;;;;;;20.68;72.98;101376.78;5055731;28;20388;-72
2023/09/29 04:29:10;;;;;;;16.40;14.60;;;;;;;20.68;72.93;101371.47;5054869;28;20372;-73
2023/09/29 04:31:35;;;;;;;17.43;14.50;;;;;;;20.69;72.90;101377.63;5053829;28;20437;-71
2023/09/29 04:34:00;;;;;;;16.90;13.97;;;;;;;20.70;73.02;101390.84;5054777;28;20805;-72
2023/09/29 04:36:26;;;;;;;15.93;14.23;;;;;;;20.70;72.85;101380.22;5054723;28;20398;-73
2023/09/29 04:38:51;;;;;;;16.90;14.43;;;;;;;20.70;72.84;101384.66;5053427;28;20403;-72
2023/09/29 04:41:19;;;;;;;16.30;14.60;;;;;;;20.68;72.90;101379.44;5054654;28;20375;-73
2023/09/29 04:43:44;;;;;;;15.60;14.00;;;;;;;20.68;72.56;101379.44;5056353;28;20422;-73
2023/09/29 04:46:13;;;;;;;15.60;14.00;;;;;;;20.69;72.70;101373.16;5054261;28;20371;-72
2023/09/29 04:48:41;;;;;;;18.50;14.60;;;;;;;20.69;72.43;101373.16;5056350;28;20595;-72
2023/09/29 04:51:06;;;;;;;15.88;14.18;;;;;;;20.68;72.58;101374.13;5053530;28;20372;-72
2023/09/29 04:53:32;;;;;;;15.43;13.83;;;;;;;20.68;72.43;101366.16;5054398;28;20900;-73
2023/09/29 04:56:00;;;;;;;16.20;14.27;;;;;;;20.68;72.84;101360.84;5054227;28;20386;-72
2023/09/29 04:58:28;;;;;;;15.65;14.00;;;;;;;20.69;72.44;101359.88;5036643;28;20396;-72
2023/09/29 05:00:56;;;;;;;16.48;14.77;;;;;;;20.69;72.41;101357.22;5054150;28;20467;-72
2023/09/29 05:03:21;;;;;;;14.90;13.38;;;;;;;20.70;72.69;101358.97;5052505;28;20383;-73
2023/09/29 05:05:47;;;;;;;15.88;13.98;;;;;;;20.69;72.52;101357.22;5054074;28;20371;-72
2023/09/29 05:08:14;;;;;;;15.50;13.90;;;;;;;20.68;71.82;101357.31;5053141;28;20376;-73
2023/09/29 05:10:44;;;;;;;15.38;13.77;;;;;;;20.68;72.46;101355.50;5053173;28;20481;-73
2023/09/29 05:13:10;;;;;;;16.05;14.32;;;;;;;20.69;72.29;101385.59;5052974;28;20394;-74
2023/09/29 05:15:37;;;;;;;16.43;13.83;;;;;;;20.68;72.43;101368.81;5053990;28;20387;-73
2023/09/29 05:18:05;;;;;;;14.60;13.10;;;;;;;20.70;72.39;101380.22;5053763;28;20412;-73
2023/09/29 05:20:33;;;;;;;14.98;13.38;;;;;;;20.69;72.66;101381.13;5052922;28;20367;-73
2023/09/29 05:22:59;;;;;;;15.25;13.63;;;;;;;20.69;72.06;101377.63;5053704;28;20380;-73
2023/09/29 05:25:26;;;;;;;14.80;13.23;;;;;;;20.69;72.20;101377.63;5036329;28;20375;-73
2023/09/29 05:27:55;;;;;;;14.70;13.05;;;;;;;20.68;72.45;101375.91;5053692;28;20444;-72
2023/09/29 05:30:23;;;;;;;14.48;12.98;;;;;;;20.67;71.69;101380.34;5053700;28;20379;-71
2023/09/29 05:32:49;;;;;;;14.50;13.07;;;;;;;20.67;71.71;101375.03;5053792;28;20421;-71
2023/09/29 05:35:14;;;;;;;14.93;12.98;;;;;;;20.66;72.09;101368.88;5053691;28;20485;-73
2023/09/29 05:37:39;;;;;;;14.33;12.80;;;;;;;20.66;71.79;101378.63;5053907;28;20379;-72
2023/09/29 05:40:06;;;;;;;14.77;12.27;;;;;;;20.68;72.52;101379.44;5053768;28;20402;-72
2023/09/29 05:42:35;;;;;;;14.27;12.87;;;;;;;20.67;72.14;101375.03;5053770;28;20467;-72
2023/09/29 05:45:03;;;;;;;14.50;13.00;;;;;;;20.67;71.80;101375.03;5058669;28;20464;-71
2023/09/29 05:47:28;;;;;;;14.60;13.10;;;;;;;20.67;72.10;101372.38;5068932;28;20380;-70
2023/09/29 05:49:56;;;;;;;14.73;13.23;;;;;;;20.67;72.01;101375.03;5053569;28;20403;-71
2023/09/29 05:52:25;;;;;;;14.07;12.60;;;;;;;20.66;72.05;101376.84;5053490;28;20410;-71
2023/09/29 05:54:52;;;;;;;14.60;13.05;;;;;;;20.65;71.95;101374.28;5055964;28;20383;-72
2023/09/29 05:57:18;;;;;;;13.88;12.32;;;;;;;20.66;72.16;101370.66;5060421;28;20380;-71
2023/09/29 05:59:43;;;;;;;15.37;12.93;;;;;;;20.66;72.23;101374.19;5053290;28;20726;-72
2023/09/29 06:02:08;;;;;;;15.87;12.50;;;;;;;20.66;72.26;101378.63;5053413;28;20384;-72
2023/09/29 06:04:36;;;;;;;13.43;12.07;;;;;;;20.66;72.14;101389.25;5053711;28;20380;-73
2023/09/29 06:07:04;;;;;;;14.23;12.40;;;;;;;20.66;72.01;101390.13;5053315;28;20383;-70
2023/09/29 06:09:30;;;;;;;14.48;12.77;;;;;;;20.66;71.92;101381.28;5053539;28;20696;-72
2023/09/29 06:11:55;;;;;;;14.02;11.82;;;;;;;20.65;72.23;101392.88;5052380;28;20842;-72
2023/09/29 06:14:21;;;;;;;13.73;12.23;;;;;;;20.66;71.89;101389.25;5055417;28;20720;-72
2023/09/29 06:16:48;;;;;;;14.05;12.60;;;;;;;20.67;71.95;101393.63;5054258;28;20698;-72
2023/09/29 06:19:15;;;;;;;13.80;12.40;;;;;;;20.65;72.18;101391.06;5053794;28;20414;-69
2023/09/29 06:21:40;;;;;;;13.43;12.02;;;;;;;20.65;72.04;101393.72;5053337;28;20514;-71
2023/09/29 06:24:06;;;;;;;14.07;12.40;;;;;;;20.66;72.93;101394.56;5052947;28;20376;-69
2023/09/29 06:26:31;;;;;;;12.90;11.60;;;;;;;20.64;72.28;101391.97;5053202;28;20553;-72
2023/09/29 06:28:56;;;;;;;13.02;11.73;;;;;;;20.65;72.71;101387.56;5052933;28;20363;-71
2023/09/29 06:31:25;;;;;;;13.33;11.90;;;;;;;20.65;72.06;101390.22;5052975;28;20383;-71
2023/09/29 06:33:50;;;;;;;13.95;12.27;;;;;;;20.65;72.11;101387.56;5052978;28;20379;-72
2023/09/29 06:36:18;;;;;;;13.25;11.85;;;;;;;20.66;72.31;101394.56;5052871;28;20447;-70
2023/09/29 06:38:43;;;;;;;13.05;11.40;;;;;;;20.65;72.45;101392.88;5052691;28;20387;-71
2023/09/29 06:41:09;;;;;;;14.00;11.97;;;;;;;20.67;72.75;101396.28;5052716;28;20714;-72
2023/09/29 06:43:37;;;;;;;12.90;11.57;;;;;;;20.67;72.70;101393.63;5052849;28;20372;-71
2023/09/29 06:46:02;;;;;;;12.85;11.45;;;;;;;20.65;71.90;101392.88;5052786;28;20917;-72
2023/09/29 06:48:30;;;;;;;13.57;11.50;;;;;;;20.66;71.95;101394.56;5051856;28;20384;-70
2023/09/29 06:50:59;;;;;;;12.80;11.50;;;;;;;20.66;73.07;101394.56;5052728;28;20404;-71
2023/09/29 06:53:24;;;;;;;13.43;11.55;;;;;;;20.65;72.03;101392.88;5052550;28;20380;-71
2023/09/29 06:55:50;;;;;;;12.93;11.55;;;;;;;20.66;72.31;101406.06;5051813;28;20387;-71
2023/09/29 06:58:17;;;;;;;12.83;11.50;;;;;;;20.66;73.23;101399.88;5051733;28;20388;-71
2023/09/29 07:00:49;;;;;;;14.10;11.70;;;;;;;20.66;72.26;101398.09;5052713;28;20406;-71
2023/09/29 07:03:15;;;;;;;12.45;11.15;;;;;;;20.66;72.23;101397.22;5052820;28;20418;-71
2023/09/29 07:05:40;;;;;;;12.10;10.90;;;;;;;20.66;72.37;101399.88;5051909;28;20721;-73
2023/09/29 07:08:06;;;;;;;14.60;11.53;;;;;;;20.65;71.97;101400.84;5052954;28;20376;-71
2023/09/29 07:10:31;;;;;;;12.52;11.32;;;;;;;20.66;72.68;101394.56;5052594;28;20466;-72
2023/09/29 07:12:57;;;;;;;13.33;11.73;;;;;;;20.85;73.64;101400.78;5052522;28;20379;-71
2023/09/29 07:15:22;;;;;;;29.40;11.98;;;;;;;21.03;73.77;101398.22;5052422;28;20414;-73
2023/09/29 07:17:49;;;;;;;20.43;10.90;;;;;;;20.90;73.29;101403.22;5052230;28;20810;-67
2023/09/29 07:20:17;;;;;;;19.55;11.40;;;;;;;20.79;72.79;101411.69;5052441;28;20453;-66
2023/09/29 07:22:43;;;;;;;18.92;11.00;;;;;;;20.72;71.99;101404.94;5052401;28;20387;-68
2023/09/29 07:25:11;;;;;;;17.70;11.23;;;;;;;20.72;73.18;101404.94;5051271;28;20388;-66
2023/09/29 07:27:39;;;;;;;17.10;11.13;;;;;;;20.69;72.79;101402.41;5054982;28;20467;-68
2023/09/29 07:30:06;;;;;;;15.50;10.77;;;;;;;20.73;74.08;101405.78;5055318;28;20379;-68
2023/09/29 07:32:31;;;;;;;15.57;10.25;;;;;;;20.72;73.78;101402.28;5055269;28;20388;-68
2023/09/29 07:34:56;;;;;;;14.85;10.73;;;;;;;20.72;73.99;101398.75;5055551;28;20391;-65
2023/09/29 07:37:27;;;;;;;13.87;10.37;;;;;;;20.72;73.43;101401.41;5055585;28;20856;-68
2023/09/29 07:39:52;;;;;;;17.02;10.52;;;;;;;20.72;72.79;101404.94;5055747;28;20449;-70
2023/09/29 07:42:17;;;;;;;15.97;10.40;;;;;;;21.01;71.71;101395.63;5056015;28;20380;-68
2023/09/29 07:44:46;;;;;;;14.47;10.90;;;;;;;21.04;71.60;101399.94;5055996;28;20433;-69
2023/09/29 07:47:11;;;;;;;15.18;10.25;;;;;;;21.03;71.82;101392.91;5055112;28;20383;-69
2023/09/29 07:49:40;;;;;;;15.63;10.40;;;;;;;21.02;71.94;101405.31;5055653;28;20372;-68
2023/09/29 07:52:07;;;;;;;14.13;9.88;;;;;;;21.04;72.14;101410.56;5055816;28;20441;-68
2023/09/29 07:54:34;;;;;;;13.63;9.68;;;;;;;21.06;72.04;101400.72;5057277;28;20371;-69
2023/09/29 07:56:59;;;;;;;12.27;9.65;;;;;;;21.07;72.25;101402.44;5055651;28;20380;-68
2023/09/29 07:59:25;;;;;;;13.13;9.52;;;;;;;21.06;72.16;101403.38;5054574;28;20388;-69
2023/09/29 08:01:51;;;;;;;11.90;9.60;;;;;;;21.07;72.26;101408.63;5055479;28;20813;-68
2023/09/29 08:04:17;;;;;;;11.60;9.35;;;;;;;21.11;72.16;101406.69;5055488;28;20375;-68
2023/09/29 08:06:42;;;;;;;10.83;8.73;;;;;;;21.12;72.23;101400.44;5055337;28;20437;-70
2023/09/29 08:09:12;;;;;;;11.27;9.18;;;;;;;21.12;72.49;101395.13;5054036;28;20523;-70
2023/09/29 08:11:41;;;;;;;11.05;8.80;;;;;;;21.15;72.34;101394.13;5055281;28;20371;-68
2023/09/29 08:14:06;;;;;;;12.07;9.03;;;;;;;21.18;72.24;101392.16;5055920;28;20376;-69
2023/09/29 08:16:32;;;;;;;9.90;8.77;;;;;;;21.18;72.18;101389.50;5055315;28;20756;-68
2023/09/29 08:19:00;;;;;;;13.07;8.68;;;;;;;21.20;72.33;101384.97;5054780;28;20403;-68
2023/09/29 08:21:28;;;;;;;10.55;8.77;;;;;;;21.21;72.33;101381.41;5054125;28;20375;-68
2023/09/29 08:23:54;;;;;;;11.20;8.23;;;;;;;21.21;72.34;101381.41;5054844;28;20372;-70
2023/09/29 08:26:21;;;;;;;9.20;8.20;;;;;;;21.23;72.27;101390.13;5037495;28;20380;-71
2023/09/29 08:28:47;;;;;;;9.25;8.18;;;;;;;21.26;72.56;101387.34;5054824;28;20831;-72
2023/09/29 08:31:18;;;;;;;8.60;7.70;;;;;;;21.25;72.35;101390.06;5054068;28;20383;-70
2023/09/29 08:33:43;;;;;;;9.82;8.05;;;;;;;21.26;72.49;101389.16;5054750;28;20717;-70
2023/09/29 08:36:09;;;;;;;9.93;8.10;;;;;;;21.29;72.52;101394.31;5054795;28;20395;-69
2023/09/29 08:38:34;;;;;;;12.30;8.70;;;;;;;21.19;72.86;101390.34;5053630;28;20402;-68
2023/09/29 08:41:01;;;;;;;15.63;9.25;;;;;;;21.01;71.66;101386.78;5054381;28;20813;-70
2023/09/29 08:43:31;;;;;;;15.80;9.35;;;;;;;20.95;71.60;101393.22;5054241;28;20376;-69
2023/09/29 08:46:00;;;;;;;12.82;9.27;;;;;;;20.94;71.66;101390.66;5045602;28;20379;-69
2023/09/29 08:48:29;;;;;;;12.77;9.18;;;;;;;20.95;71.50;101387.06;5054220;28;20874;-69
2023/09/29 08:51:00;;;;;;;12.18;8.82;;;;;;;20.96;71.35;101391.47;5051484;28;20383;-69
2023/09/29 08:53:26;;;;;;;11.38;9.00;;;;;;;20.97;71.38;101390.50;5053926;28;20872;-73
2023/09/29 08:55:56;;;;;;;14.88;8.77;;;;;;;21.07;71.83;101394.47;5053954;28;20383;-73
2023/09/29 08:58:21;;;;;;;16.53;8.73;;;;;;;21.15;72.24;101387.00;5053896;28;20380;-72
2023/09/29 09:00:48;;;;;;;27.90;9.57;;;;;;;21.34;72.57;101392.31;5054439;28;20375;-72
2023/09/29 09:03:16;;;;;;;235.43;63.30;;;;;;;21.35;72.34;101404.66;5054277;28;20397;-73
2023/09/29 09:05:42;;;;;;;171.30;45.63;;;;;;;21.16;72.52;101412.63;5049704;28;20727;-71
2023/09/29 09:08:07;;;;;;;127.90;36.03;;;;;;;21.04;73.87;101418.53;5054254;28;20954;-70
2023/09/29 09:10:36;;;;;;;121.90;33.60;;;;;;;20.96;74.18;101418.03;5053595;28;20748;-70
2023/09/29 09:13:05;;;;;;;134.45;36.85;;;;;;;20.90;72.91;101419.16;5053295;28;20375;-69
2023/09/29 09:15:30;;;;;;;139.38;39.20;;;;;;;20.89;73.15;101413.94;5057073;28;20382;-71
2023/09/29 09:17:56;;;;;;;134.50;40.75;;;;;;;20.86;73.85;101415.81;5056217;28;20387;-70
2023/09/29 09:20:24;;;;;;;135.23;39.33;;;;;;;20.86;73.72;101423.78;5051965;28;20399;-70
2023/09/29 09:23:03;;;;;;;114.50;33.50;;;;;;;20.84;73.37;101414.16;5052280;28;20717;-70
2023/09/29 09:25:37;;;;;;;103.72;30.58;;;;;;;20.82;73.55;101416.00;5055961;28;20382;-74
2023/09/29 09:28:05;;;;;;;105.97;32.60;;;;;;;20.80;73.43;101413.41;5055790;28;20475;-75
2023/09/29 09:30:35;;;;;;;104.97;32.72;;;;;;;20.80;73.72;101416.06;5052790;28;20433;-73
2023/09/29 09:33:06;;;;;;;97.90;30.08;;;;;;;20.79;73.72;101417.03;5053075;28;20372;-76
2023/09/29 09:35:31;;;;;;;87.82;27.52;;;;;;;20.79;74.05;101417.03;5035549;28;20395;-76
2023/09/29 09:37:57;;;;;;;96.03;28.13;;;;;;;20.77;73.97;101413.56;5052086;28;20764;-75
2023/09/29 09:40:26;;;;;;;90.32;27.10;;;;;;;20.78;73.94;101417.94;5035146;28;20403;-74
2023/09/29 09:43:00;;;;;;;77.60;23.73;;;;;;;20.77;73.83;101415.38;5052315;28;20848;-74
2023/09/29 09:45:29;;;;;;;80.95;25.05;;;;;;;20.75;74.09;101410.09;5051514;28;20467;-73
2023/09/29 09:47:57;;;;;;;69.43;22.27;;;;;;;20.77;74.37;101413.56;5048417;28;20406;-74
2023/09/29 09:50:26;;;;;;;73.70;23.70;;;;;;;20.76;73.84;101408.31;5052264;28;20458;-73
2023/09/29 09:52:53;;;;;;;73.03;23.05;;;;;;;20.74;73.96;101410.16;5050120;28;20379;-76
2023/09/29 09:55:18;;;;;;;67.68;21.20;;;;;;;20.74;74.64;101419.00;5051519;28;20379;-72
2023/09/29 09:57:45;;;;;;;60.72;21.42;;;;;;;20.73;74.55;101422.59;5034371;28;20393;-76
2023/09/29 10:00:14;;;;;;;56.60;19.73;;;;;;;20.72;74.48;101415.56;5051287;28;20744;-75
2023/09/29 10:02:43;;;;;;;61.42;20.70;;;;;;;20.71;74.31;101411.16;5051076;28;20407;-74
2023/09/29 10:05:16;;;;;;;54.30;19.98;;;;;;;20.71;73.95;101405.84;5044016;28;20378;-75
2023/09/29 10:07:45;;;;;;;53.65;19.17;;;;;;;20.71;74.34;101405.84;5047916;28;20396;-74
2023/09/29 10:10:11;;;;;;;49.58;17.67;;;;;;;20.71;74.63;101405.84;5053302;28;20380;-73
2023/09/29 10:12:41;;;;;;;51.80;18.10;;;;;;;20.69;74.36;101415.69;5045949;28;20863;-74
2023/09/29 10:15:14;;;;;;;45.35;16.02;;;;;;;20.69;74.53;101405.06;5048543;28;20849;-68
2023/09/29 10:17:39;;;;;;;43.03;15.43;;;;;;;20.71;74.36;101408.50;5051285;28;20390;-69
2023/09/29 10:20:05;;;;;;;42.33;16.10;;;;;;;20.69;74.24;101414.81;5050877;28;20391;-67
2023/09/29 10:22:35;;;;;;;39.22;14.63;;;;;;;20.69;74.38;101412.16;5051833;28;20770;-75
2023/09/29 10:25:19;;;;;;;39.85;15.38;;;;;;;20.70;74.77;101406.81;5035182;28;20376;-75
2023/09/29 10:27:49;;;;;;;37.38;14.48;;;;;;;20.68;74.29;101408.66;5050887;28;20379;-74
2023/09/29 10:30:17;;;;;;;33.35;13.48;;;;;;;20.68;74.24;101406.00;5049621;28;20885;-75
2023/09/29 10:32:48;;;;;;;31.90;13.35;;;;;;;20.68;74.34;101408.66;5074919;28;20396;-78
2023/09/29 10:35:18;;;;;;;36.20;13.68;;;;;;;20.68;74.32;101406.00;5034820;28;20375;-74
2023/09/29 10:37:54;;;;;;;31.25;12.98;;;;;;;20.68;74.32;101405.16;5056886;28;20405;-72
2023/09/29 10:40:28;;;;;;;27.17;12.77;;;;;;;20.67;74.32;101406.91;5050985;28;20431;-74
2023/09/29 10:42:54;;;;;;;28.52;12.40;;;;;;;20.67;74.11;101412.22;5046276;28;20383;-67
2023/09/29 10:45:29;;;;;;;28.45;12.18;;;;;;;20.67;74.41;101422.84;5051049;28;20391;-74
2023/09/29 10:48:08;;;;;;;24.77;11.73;;;;;;;20.68;74.40;101418.44;5051942;28;20387;-73
2023/09/29 10:50:44;;;;;;;26.15;11.25;;;;;;;20.69;74.34;101414.81;5050922;28;20376;-72
2023/09/29 10:53:12;;;;;;;24.52;10.52;;;;;;;20.68;74.19;101419.28;5051949;28;20386;-73
2023/09/29 10:55:45;;;;;;;24.52;10.77;;;;;;;20.68;74.22;101408.66;5051869;28;20392;-74
2023/09/29 10:58:11;;;;;;;24.00;11.00;;;;;;;20.68;74.20;101413.97;5050873;28;20442;-72
2023/09/29 11:00:42;;;;;;;18.98;10.60;;;;;;;20.68;74.01;101408.66;5051583;28;20809;-71
2023/09/29 11:03:08;;;;;;;20.60;10.40;;;;;;;20.68;74.40;101402.50;5054330;28;20734;-72
2023/09/29 11:05:33;;;;;;;20.15;10.50;;;;;;;20.68;74.09;101397.19;5054821;28;20468;-71
2023/09/29 11:07:59;;;;;;;20.17;9.53;;;;;;;20.66;74.39;101397.22;5056589;28;20391;-72
2023/09/29 11:10:24;;;;;;;20.67;10.48;;;;;;;20.75;74.49;101404.78;5055556;28;20705;-75